Time,TemperatureF,DewpointF,PressureIn,WindDirection,WindDirectionDegrees,WindSpeedMPH,WindSpeedGustMPH,Humidity,HourlyPrecipIn,Conditions,Clouds,dailyrainin,SoftwareType,DateUTC
2013-09-11 00:12:00,49.0,47.0,29.92,ESE,117,4.0,4.0,94,0.00,,,0.00,weatherlink.com 1.10,2013-09-11 06:12:00,
2013-09-11 00:27:00,49.1,48.0,29.92,SE,136,4.0,5.0,94,0.00,,,0.00,weatherlink.com 1.10,2013-09-11 06:27:00,
2013-09-11 00:42:00,49.1,48.0,29.92,SE,141,3.0,7.0,94,0.00,,,0.00,weatherlink.com 1.10,2013-09-11 06:42:00,
2013-09-11 00:57:00,49.0,47.0,29.92,SE,129,3.0,5.0,94,0.00,,,0.00,weatherlink.com 1.10,2013-09-11 06:57:00,
2013-09-11 01:12:00,48.9,47.0,29.92,SE,131,4.0,6.0,94,0.00,,,0.00,weatherlink.com 1.10,2013-09-11 07:12:00,
2013-09-11 01:27:00,48.9,47.0,29.93,ESE,105,5.0,5.0,94,0.00,,,0.00,weatherlink.com 1.10,2013-09-11 07:27:00,
2013-09-11 01:42:00,48.8,48.0,29.93,ESE,122,4.0,5.0,95,0.00,,,0.00,weatherlink.com 1.10,2013-09-11 07:42:00,
2013-09-11 01:57:00,48.7,47.0,29.93,SE,132,3.0,5.0,95,0.00,,,0.00,weatherlink.com 1.10,2013-09-11 07:57:00,
2013-09-11 02:12:00,48.7,47.0,29.93,SE,143,3.0,5.0,95,0.01,,,0.01,weatherlink.com 1.10,2013-09-11 08:12:00,
2013-09-11 02:27:00,48.8,48.0,29.93,SE,143,3.0,3.0,96,0.01,,,0.01,weatherlink.com 1.10,2013-09-11 08:27:00,
2013-09-11 02:42:00,48.7,47.0,29.92,SE,146,4.0,5.0,95,0.01,,,0.01,weatherlink.com 1.10,2013-09-11 08:42:00,
2013-09-11 02:57:00,48.7,48.0,29.92,SE,133,3.0,5.0,96,0.01,,,0.01,weatherlink.com 1.10,2013-09-11 08:57:00,
2013-09-11 03:12:00,48.6,48.0,29.92,SE,136,3.0,5.0,96,0.00,,,0.01,weatherlink.com 1.10,2013-09-11 09:12:00,
2013-09-11 03:27:00,48.4,47.0,29.91,SE,139,3.0,3.0,96,0.00,,,0.01,weatherlink.com 1.10,2013-09-11 09:27:00,
2013-09-11 03:42:00,48.4,47.0,29.91,SE,126,1.0,3.0,96,0.00,,,0.01,weatherlink.com 1.10,2013-09-11 09:42:00,
2013-09-11 03:57:00,48.6,48.0,29.91,ESE,105,0.0,0.0,96,0.00,,,0.01,weatherlink.com 1.10,2013-09-11 09:57:00,
2013-09-11 04:12:00,48.5,48.0,29.91,South,174,0.0,0.0,96,0.00,,,0.01,weatherlink.com 1.10,2013-09-11 10:12:00,
2013-09-11 04:27:00,48.6,47.0,29.91,SSW,192,0.0,3.0,95,0.00,,,0.01,weatherlink.com 1.10,2013-09-11 10:27:00,
2013-09-11 04:57:00,48.5,47.0,29.91,SE,125,0.0,0.0,95,0.00,,,0.01,weatherlink.com 1.10,2013-09-11 10:57:00,
2013-09-11 05:27:00,48.9,48.0,29.91,SE,139,0.0,0.0,96,0.00,,,0.01,weatherlink.com 1.10,2013-09-11 11:27:00,
2013-09-11 05:42:00,48.9,48.0,29.91,SW,235,0.0,0.0,95,0.00,,,0.01,weatherlink.com 1.10,2013-09-11 11:42:00,
2013-09-11 05:57:00,48.7,47.0,29.92,SW,215,0.0,0.0,95,0.00,,,0.01,weatherlink.com 1.10,2013-09-11 11:57:00,
2013-09-11 06:12:00,48.7,48.0,29.92,SW,215,0.0,0.0,96,0.00,,,0.01,weatherlink.com 1.10,2013-09-11 12:12:00,
2013-09-11 06:28:00,48.7,48.0,29.92,SW,215,0.0,0.0,96,0.00,,,0.01,weatherlink.com 1.10,2013-09-11 12:28:00,
2013-09-11 06:43:00,48.7,48.0,29.92,SW,215,0.0,0.0,96,0.00,,,0.01,weatherlink.com 1.10,2013-09-11 12:43:00,
2013-09-11 06:58:00,48.7,48.0,29.92,SW,215,0.0,0.0,96,0.00,,,0.01,weatherlink.com 1.10,2013-09-11 12:58:00,
2013-09-11 07:13:00,48.8,48.0,29.92,SW,215,0.0,0.0,96,0.00,,,0.01,weatherlink.com 1.10,2013-09-11 13:13:00,
2013-09-11 07:28:00,49.0,48.0,29.92,SE,125,0.0,0.0,96,0.00,,,0.01,weatherlink.com 1.10,2013-09-11 13:28:00,
2013-09-11 07:43:00,49.5,48.0,29.92,ESE,105,3.0,4.0,95,0.00,,,0.01,weatherlink.com 1.10,2013-09-11 13:43:00,
2013-09-11 07:58:00,49.8,48.0,29.93,ESE,105,2.0,3.0,94,0.00,,,0.01,weatherlink.com 1.10,2013-09-11 13:58:00,
2013-09-11 08:13:00,50.2,49.0,29.93,ESE,110,0.0,3.0,94,0.00,,,0.01,weatherlink.com 1.10,2013-09-11 14:13:00,
2013-09-11 08:28:00,50.7,49.0,29.93,SE,128,5.0,7.0,93,0.00,,,0.01,weatherlink.com 1.10,2013-09-11 14:28:00,
2013-09-11 08:43:00,51.1,49.0,29.93,SE,132,4.0,7.0,93,0.00,,,0.01,weatherlink.com 1.10,2013-09-11 14:43:00,
2013-09-11 08:58:00,51.6,50.0,29.93,SSE,153,5.0,8.0,93,0.00,,,0.01,weatherlink.com 1.10,2013-09-11 14:58:00,
2013-09-11 09:13:00,52.0,50.0,29.93,SE,139,6.0,8.0,92,0.00,,,0.01,weatherlink.com 1.10,2013-09-11 15:13:00,
2013-09-11 09:28:00,52.3,50.0,29.94,SSE,153,7.0,9.0,92,0.01,,,0.02,weatherlink.com 1.10,2013-09-11 15:28:00,
2013-09-11 09:43:00,52.9,50.0,29.94,SE,139,7.0,8.0,91,0.01,,,0.02,weatherlink.com 1.10,2013-09-11 15:43:00,
2013-09-11 09:58:00,54.2,51.0,29.94,South,183,5.0,8.0,90,0.01,,,0.02,weatherlink.com 1.10,2013-09-11 15:58:00,
2013-09-11 10:13:00,55.5,51.0,29.94,SE,136,3.0,9.0,84,0.01,,,0.02,weatherlink.com 1.10,2013-09-11 16:13:00,
2013-09-11 10:28:00,56.0,52.0,29.94,SSE,155,8.0,9.0,85,0.00,,,0.02,weatherlink.com 1.10,2013-09-11 16:28:00,
2013-09-11 10:43:00,56.2,51.0,29.94,SSE,163,5.0,11.0,82,0.00,,,0.02,weatherlink.com 1.10,2013-09-11 16:43:00,
2013-09-11 10:58:00,56.2,50.0,29.94,ESE,122,5.0,9.0,80,0.00,,,0.02,weatherlink.com 1.10,2013-09-11 16:58:00,
2013-09-11 11:13:00,57.0,50.0,29.93,ESE,106,3.0,6.0,78,0.00,,,0.02,weatherlink.com 1.10,2013-09-11 17:13:00,
2013-09-11 11:28:00,56.9,50.0,29.93,ESE,111,7.0,10.0,77,0.00,,,0.02,weatherlink.com 1.10,2013-09-11 17:28:00,
2013-09-11 11:43:00,59.9,50.0,29.92,SSE,163,4.0,10.0,71,0.00,,,0.02,weatherlink.com 1.10,2013-09-11 17:43:00,
2013-09-11 11:58:00,58.8,49.0,29.92,ESE,103,8.0,11.0,71,0.00,,,0.02,weatherlink.com 1.10,2013-09-11 17:58:00,
2013-09-11 12:13:00,60.0,50.0,29.92,East,85,6.0,8.0,69,0.00,,,0.02,weatherlink.com 1.10,2013-09-11 18:13:00,
2013-09-11 12:28:00,61.4,49.0,29.91,SE,131,6.0,10.0,63,0.00,,,0.02,weatherlink.com 1.10,2013-09-11 18:28:00,
2013-09-11 12:43:00,62.2,51.0,29.90,ESE,103,12.0,16.0,66,0.00,,,0.02,weatherlink.com 1.10,2013-09-11 18:43:00,
2013-09-11 12:58:00,63.2,50.0,29.90,East,96,9.0,15.0,63,0.00,,,0.02,weatherlink.com 1.10,2013-09-11 18:58:00,
2013-09-11 13:13:00,64.1,47.0,29.89,SSE,167,12.0,14.0,54,0.00,,,0.02,weatherlink.com 1.10,2013-09-11 19:13:00,
2013-09-11 13:29:00,63.1,47.0,29.89,SE,129,9.0,16.0,57,0.00,,,0.02,weatherlink.com 1.10,2013-09-11 19:29:00,
2013-09-11 13:44:00,62.9,44.0,29.88,SE,126,2.0,12.0,51,0.00,,,0.02,weatherlink.com 1.10,2013-09-11 19:44:00,
2013-09-11 13:59:00,64.3,49.0,29.88,ESE,103,5.0,12.0,58,0.00,,,0.02,weatherlink.com 1.10,2013-09-11 19:59:00,
2013-09-11 14:14:00,65.9,45.0,29.88,SSE,148,4.0,11.0,47,0.00,,,0.02,weatherlink.com 1.10,2013-09-11 20:14:00,
2013-09-11 14:29:00,65.0,45.0,29.88,SW,221,8.0,15.0,48,0.00,,,0.02,weatherlink.com 1.10,2013-09-11 20:29:00,
2013-09-11 14:44:00,65.1,46.0,29.88,SSW,204,1.0,14.0,51,0.00,,,0.02,weatherlink.com 1.10,2013-09-11 20:44:00,
2013-09-11 14:59:00,65.8,45.0,29.87,ESE,114,2.0,9.0,47,0.00,,,0.02,weatherlink.com 1.10,2013-09-11 20:59:00,
2013-09-11 15:14:00,65.6,45.0,29.86,SE,135,8.0,13.0,48,0.00,,,0.02,weatherlink.com 1.10,2013-09-11 21:14:00,
2013-09-11 15:29:00,66.1,44.0,29.86,SW,232,5.0,14.0,45,0.00,,,0.02,weatherlink.com 1.10,2013-09-11 21:29:00,
2013-09-11 15:44:00,66.9,42.0,29.86,SSW,194,2.0,11.0,41,0.00,,,0.02,weatherlink.com 1.10,2013-09-11 21:44:00,
2013-09-11 15:59:00,67.9,44.0,29.85,South,170,3.0,10.0,43,0.00,,,0.02,weatherlink.com 1.10,2013-09-11 21:59:00,
2013-09-11 16:14:00,66.0,43.0,29.85,West,271,0.0,8.0,44,0.00,,,0.02,weatherlink.com 1.10,2013-09-11 22:14:00,
2013-09-11 16:29:00,66.0,45.0,29.84,West,267,8.0,9.0,47,0.00,,,0.02,weatherlink.com 1.10,2013-09-11 22:29:00,
2013-09-11 16:44:00,67.4,46.0,29.84,West,263,3.0,8.0,46,0.00,,,0.02,weatherlink.com 1.10,2013-09-11 22:44:00,
2013-09-11 16:59:00,67.2,42.0,29.84,SW,232,8.0,11.0,40,0.00,,,0.02,weatherlink.com 1.10,2013-09-11 22:59:00,
2013-09-11 17:14:00,67.1,42.0,29.84,SSE,156,7.0,11.0,40,0.00,,,0.02,weatherlink.com 1.10,2013-09-11 23:14:00,
2013-09-11 17:29:00,65.5,42.0,29.84,SSW,210,3.0,9.0,43,0.00,,,0.02,weatherlink.com 1.10,2013-09-11 23:29:00,
2013-09-11 17:44:00,64.6,43.0,29.83,WSW,249,4.0,7.0,46,0.00,,,0.02,weatherlink.com 1.10,2013-09-11 23:44:00,
2013-09-11 17:59:00,65.3,41.0,29.83,SSW,207,8.0,8.0,42,0.00,,,0.02,weatherlink.com 1.10,2013-09-11 23:59:00,
2013-09-11 18:14:00,62.1,43.0,29.83,SW,226,3.0,5.0,50,0.00,,,0.02,weatherlink.com 1.10,2013-09-12 00:14:00,
2013-09-11 18:30:00,60.8,42.0,29.83,WSW,238,3.0,9.0,50,0.00,,,0.02,weatherlink.com 1.10,2013-09-12 00:30:00,
2013-09-11 18:44:00,60.3,42.0,29.83,West,266,2.0,7.0,52,0.00,,,0.02,weatherlink.com 1.10,2013-09-12 00:44:00,
2013-09-11 18:59:00,59.3,44.0,29.84,North,11,1.0,3.0,58,0.00,,,0.02,weatherlink.com 1.10,2013-09-12 00:59:00,
2013-09-11 19:14:00,58.3,43.0,29.83,NNE,31,1.0,3.0,57,0.00,,,0.02,weatherlink.com 1.10,2013-09-12 01:14:00,
2013-09-11 19:29:00,57.8,44.0,29.83,SW,232,2.0,4.0,61,0.00,,,0.02,weatherlink.com 1.10,2013-09-12 01:29:00,
2013-09-11 19:44:00,55.7,44.0,29.84,West,276,0.0,2.0,66,0.00,,,0.02,weatherlink.com 1.10,2013-09-12 01:44:00,
2013-09-11 19:59:00,54.3,45.0,29.85,East,91,0.0,0.0,70,0.00,,,0.02,weatherlink.com 1.10,2013-09-12 01:59:00,
2013-09-11 20:14:00,52.5,44.0,29.86,NW,308,0.0,0.0,74,0.00,,,0.02,weatherlink.com 1.10,2013-09-12 02:14:00,
2013-09-11 20:29:00,51.4,44.0,29.86,North,350,0.0,0.0,76,0.00,,,0.02,weatherlink.com 1.10,2013-09-12 02:29:00,
2013-09-11 20:44:00,51.3,44.0,29.87,WNW,291,2.0,3.0,77,0.00,,,0.02,weatherlink.com 1.10,2013-09-12 02:44:00,
2013-09-11 21:00:00,50.5,44.0,29.88,NW,325,1.0,2.0,79,0.00,,,0.02,weatherlink.com 1.10,2013-09-12 03:00:00,
2013-09-11 21:14:00,48.9,44.0,29.88,NNW,347,1.0,2.0,82,0.00,,,0.02,weatherlink.com 1.10,2013-09-12 03:14:00,
2013-09-11 21:29:00,48.3,44.0,29.89,WNW,291,0.0,1.0,85,0.00,,,0.02,weatherlink.com 1.10,2013-09-12 03:29:00,
2013-09-11 21:44:00,47.1,44.0,29.90,East,96,1.0,2.0,87,0.00,,,0.02,weatherlink.com 1.10,2013-09-12 03:44:00,
2013-09-11 21:59:00,46.4,43.0,29.90,East,95,0.0,0.0,89,0.00,,,0.02,weatherlink.com 1.10,2013-09-12 03:59:00,
2013-09-11 22:14:00,46.6,43.0,29.90,NW,319,0.0,0.0,88,0.00,,,0.02,weatherlink.com 1.10,2013-09-12 04:14:00,
2013-09-11 22:29:00,46.5,44.0,29.91,North,352,2.0,3.0,89,0.00,,,0.02,weatherlink.com 1.10,2013-09-12 04:29:00,
2013-09-11 22:44:00,45.6,42.0,29.91,NW,316,2.0,3.0,88,0.00,,,0.02,weatherlink.com 1.10,2013-09-12 04:44:00,
2013-09-11 22:59:00,45.3,43.0,29.91,NW,314,2.0,5.0,90,0.00,,,0.02,weatherlink.com 1.10,2013-09-12 04:59:00,
2013-09-11 23:14:00,45.7,43.0,29.92,NNW,332,4.0,4.0,89,0.00,,,0.02,weatherlink.com 1.10,2013-09-12 05:14:00,
2013-09-11 23:29:00,45.8,43.0,29.91,NNW,347,5.0,5.0,88,0.00,,,0.02,weatherlink.com 1.10,2013-09-12 05:29:00,
2013-09-11 23:44:00,44.9,42.0,29.92,WNW,299,0.0,0.0,89,0.00,,,0.02,weatherlink.com 1.10,2013-09-12 05:44:00,
2013-09-11 23:59:00,45.0,42.0,29.92,NNW,336,0.0,2.0,88,0.00,,,0.02,weatherlink.com 1.10,2013-09-12 05:59:00,